• Join FlightAware (Why Join?)
  • Login
  • US Flag 
09:28AM EDT


 

Airport Tracker/Info


-or-


 

Live Flight TrackerFlight Track Log ✈ N400PU ✈ 20-Nov-2013 ✈ KLAF - KUNV

Flight Track Log - Related Links

Times and Time Zones

All times are in EST time to prevent confusion due to time zone crossing. See the N400PU flight status page for this flight to view local times or setup timezone preferences in your user account.

Time Position Orientation Groundspeed Altitude Reporting Facility
EST Latitude Longitude Course Direction KTS MPH feet Rate Location/Type
06:12AM 40.4103 -86.8664 86° East 210 242 3,400  Level Chicago Center
06:13AM 40.4150 -86.7814 86° East 232 267 5,800 2,700 Climbing Chicago Center
06:14AM 40.4253 -86.6597 84° East 277 319 8,900 2,460 Climbing Chicago Center
06:15AM 40.4336 -86.5567 84° East 284 327 10,800 1,920 Climbing Chicago Center
06:16AM 40.4411 -86.4450 85° East 302 348 12,800 1,920 Climbing Chicago Center
06:17AM 40.4503 -86.3303 84° East 314 361 14,700 1,860 Climbing Chicago Center
06:18AM 40.4578 -86.2153 85° East 316 364 16,600 1,620 Climbing Chicago Center
06:19AM 40.4658 -86.0953 85° East 328 377 18,000 1,440 Climbing Chicago Center
06:20AM 40.4747 -85.9731 84° East 335 386 19,600 1,440 Climbing Chicago Center
06:21AM 40.4836 -85.8425 85° East 354 407 21,000 1,380 Climbing Chicago Center
06:22AM 40.4922 -85.7075 85° East 368 423 22,500 1,440 Climbing Chicago Center
06:23AM 40.5089 -85.5717 81° East 378 435 24,000 1,500 Climbing Chicago Center
06:24AM 40.5272 -85.4333 80° East 384 442 25,500 1,380 Climbing Chicago Center
06:25AM 40.5467 -85.2944 80° East 389 448 26,900 1,200 Climbing Chicago Center
06:26AM 40.5647 -85.1531 80° East 392 451 28,000 1,020 Climbing Chicago Center
06:27AM 40.5839 -85.0075 80° East 405 466 29,000 900 Climbing Chicago Center
06:28AM 40.6028 -84.8569 81° East 416 479 29,900 900 Climbing Chicago Center
06:29AM 40.6233 -84.7031 80° East 427 491 30,900 960 Climbing Chicago Center
06:30AM 40.6419 -84.5422 81° East 438 504 31,900 960 Climbing Chicago Center
06:31AM 40.6603 -84.3850 81° East 438 504 32,900 900 Climbing Chicago Center
06:32AM 40.6808 -84.2272 80° East 439 505 33,800 900 Climbing Chicago Center
06:33AM 40.6994 -84.0711 81° East 436 502 34,800 840 Climbing Chicago Center
06:34AM 40.7192 -83.9119 81° East 439 505 35,500 660 Climbing Chicago Center
06:35AM 40.7378 -83.7542 81° East 439 505 36,200 660 Climbing Chicago Center
06:36AM 40.7564 -83.5944 81° East 441 507 36,900 360 Climbing Chicago Center
06:37AM 40.7750 -83.4333 81° East 445 512 37,000  Climbing Chicago Center
06:38AM 40.8044 -83.1744 81° East 465 535 37,000  Level Cleveland Center
06:39AM 40.8253 -82.9964 81° East 472 543 37,000  Level Indianapolis Center
06:40AM 40.8431 -82.8236 82° East 472 543 37,000  Level Indianapolis Center
06:41AM 40.8622 -82.6525 82° East 467 537 37,000  Level Indianapolis Center
06:42AM 40.8675 -82.4808 88° East 470 541 37,000  Level Indianapolis Center
06:43AM 40.8653 -82.3092 91° East 467 537 37,000  Level Indianapolis Center
06:44AM 40.8636 -82.1364 91° East 468 539 37,000  Level Indianapolis Center
06:45AM 40.8611 -81.9636 91° East 469 540 37,000  Level Indianapolis Center
06:46AM 40.8589 -81.7908 91° East 470 541 37,000  Level Indianapolis Center
06:47AM 40.8558 -81.6169 91° East 472 543 37,000  Level Indianapolis Center
06:48AM 40.8531 -81.4428 91° East 474 545 37,000  Level Indianapolis Center
06:49AM 40.8494 -81.2694 92° East 472 543 37,000 -420 Level Indianapolis Center
06:50AM 40.8467 -81.0969 91° East 469 540 36,200 -900 Descending Indianapolis Center
06:51AM 40.8419 -80.9208 92° East 457 526 35,100 -1,020 Descending Cleveland Center
06:53AM 40.8386 -80.7467 91° East 470 541 34,100 -1,080 Descending Cleveland Center
06:54AM 40.8342 -80.5514 92° East 471 542 33,000 -1,080 Descending Cleveland Center
06:55AM 40.8294 -80.3775 92° East 471 542 32,000 -1,080 Descending Cleveland Center
06:56AM 40.8244 -80.2042 92° East 474 545 30,900 -1,080 Descending Cleveland Center
06:57AM 40.8275 -80.0311 89° East 472 543 29,900 -1,140 Descending Cleveland Center
06:58AM 40.8319 -79.8381 88° East 476 548 28,700 -1,320 Descending Cleveland Center
06:59AM 40.8358 -79.6628 88° East 477 549 27,200 -1,800 Descending Cleveland Center
07:00AM 40.8375 -79.4900 89° East 471 542 25,100 -2,160 Descending Cleveland Center
07:01AM 40.8394 -79.3169 89° East 471 542 22,900 -2,100 Descending Cleveland Center
07:02AM 40.8422 -79.1511 89° East 457 526 20,800 -2,100 Descending Cleveland Center
07:03AM 40.8439 -78.9919 89° East 437 503 18,600 -2,100 Descending Cleveland Center
07:04AM 40.8458 -78.8386 89° East 408 470 16,600 -2,460 Descending Cleveland Center
07:05AM 40.8472 -78.6711 89° East 388 447 13,600 -2,640 Descending Cleveland Center
07:06AM 40.8461 -78.5358 91° East 381 438 11,200 -1,320 Descending Cleveland Center
07:07AM 40.8481 -78.4122 89° East 349 402 11,000 -840 Descending Cleveland Center
07:08AM 40.8483 -78.3022 90° East 299 344 9,600 -1,620 Descending Cleveland Center
07:09AM 40.8492 -78.2086 89° East 269 310 7,700 -1,980 Descending Cleveland Center
07:10AM 40.8503 -78.1181 89° East 255 293 5,600 -2,160 Descending Cleveland Center
07:11AM 40.8350 -78.0147 101° East 243 280 3,300 -1,320 Descending Cleveland Center
07:12AM 40.8197 -77.9397 105° East 222 255 3,000 -660 Descending Cleveland Center
07:13AM 40.8253 -77.8872 82° East 173 199 2,000 -840 Descending Cleveland Center
07:14AM 40.8381 -77.8700 46° Northeast 153 176 1,500 -660 Descending New York Center